Nearby METAR Reports

 

TNCA - Queen Beatrix, Lesser Antilles
Distance from station: 0 0km
Updated: 21/05/2018 06:00
Few Clouds
Few Clouds
 Wind from E
Wind: E 31 km/h
Temperature: 27°C
Heat Index: 31°C
Dew Point: 24°C
Humidity: 84%
Barometer: 1011 hPa
Clouds: Few Clouds
Visibility: 10 km
Cloud details: Few Clouds 549 m
2018/05/21 10:00 TNCA 211000Z 09017KT 9999 FEW018 27/24 Q1011 NOSIG
SVJC - Paraguana/Josefa, Venezuela
Distance from station: S 83km
Updated: 05/12/2017 15:00
NOT Current

 
2017/12/05 19:00 SVJC 051900Z NL
 
TNCC - Hato Air Curacao, Lesser Antilles
Distance from station: ESE 117km
Updated: 31/12/1969 20:00
NOT Current
unable to load TNCC data RC=404 Not Found
unable to load TNCC data RC=404 Not Found
 
SVCR - Coro/Jose Leonar, Venezuela
Distance from station: SSE 126km
Updated: 20/05/2018 23:00
NOT Current
Few Clouds
Few Clouds
 Wind from varies
Wind: varies 0 km/h
Temperature: 27°C
Heat Index: 30°C
Dew Point: 23°C
Humidity: 79%
Barometer: 1012 hPa
Clouds: Few Clouds
Visibility: 10 km
Cloud details: Few Clouds 488 m
2018/05/21 03:00 SVCR 210300Z /////KT 9999 FEW016 27/23 Q1012
 
TNCB - Bonaire/Flamingo, Lesser Antilles
Distance from station: ESE 191km
Updated: 21/05/2018 05:55
Mostly Cloudy
Mostly Cloudy
 Wind from E
Wind: E 26 km/h
Temperature: 27°C
Heat Index: 30°C
Dew Point: 23°C
Humidity: 79%
Barometer: 1012 hPa
Clouds: Mostly Cloudy
Visibility: 10 km
Cloud details: Few Clouds 396 m
Partly Cloudy 549 m
Mostly Cloudy 762 m
2018/05/21 09:55 TNCB 210955Z AUTO 09014KT 060V120 9999 // FEW013/// SCT018/// BKN025/// 27/23 Q1012 RE//
SVMC - Maracaibo/La Chi, Venezuela
Distance from station: SW 285km
Updated: 21/05/2018 05:00
NOT Current
Mostly Cloudy
Mostly Cloudy
 Wind from varies
Wind: varies 0 km/h
Temperature: 25°C
Dew Point: 24°C
Humidity: 94%
Barometer: 1010 hPa
Clouds: Mostly Cloudy
Visibility: 10 km
Cloud details: Mostly Cloudy 396 m
2018/05/21 09:00 SVMC 210900Z /////KT 9999 BKN013 25/24 Q1010